Time;durP1;ratioP1;P1;durP2;ratioP2;P2;SDS_P1;SDS_P2;PMS_P1;PMS_P2;Temp;Humidity;BMP_temperature;BMP_pressure;BME280_temperature;BME280_humidity;BME280_pressure;Samples;Min_cycle;Max_cycle;Signal;HPM_P1;HPM_P2
2023/03/14 00:00:18;;;;;;;9.63;4.80;;;;;;;-41.10;70.80;90418.47;4240033;28;21280;-68
2023/03/14 00:02:45;;;;;;;14.63;5.00;;;;;;;-41.14;71.09;90426.06;4235992;28;23007;-70
2023/03/14 00:05:12;;;;;;;10.03;4.73;;;;;;;-41.13;71.47;90432.50;4246517;28;20234;-72
2023/03/14 00:07:39;;;;;;;12.27;4.73;;;;;;;-41.16;71.49;90421.28;4251467;28;20335;-67
2023/03/14 00:10:09;;;;;;;11.67;5.13;;;;;;;-41.21;71.69;90415.91;4252408;28;20597;-69
2023/03/14 00:12:36;;;;;;;14.53;5.10;;;;;;;-41.19;71.62;90416.59;4248801;28;20226;-70
2023/03/14 00:15:04;;;;;;;11.73;5.20;;;;;;;-41.28;71.68;90398.44;4245389;28;20635;-70
2023/03/14 00:17:31;;;;;;;13.93;5.33;;;;;;;-41.19;71.64;90418.25;4247987;28;20226;-67
2023/03/14 00:20:03;;;;;;;14.03;5.37;;;;;;;-41.33;71.79;90404.50;4252001;28;20632;-69
2023/03/14 00:22:31;;;;;;;14.10;5.27;;;;;;;-41.39;71.86;90395.09;4248744;28;20399;-69
2023/03/14 00:24:57;;;;;;;13.73;5.33;;;;;;;-41.44;72.00;90389.75;4243118;28;21719;-67
2023/03/14 00:27:24;;;;;;;16.73;5.97;;;;;;;-41.46;71.78;90393.91;4236413;28;20226;-69
2023/03/14 00:29:50;;;;;;;11.93;4.83;;;;;;;-41.46;71.27;90381.75;4240024;28;20226;-69
2023/03/14 00:32:17;;;;;;;14.33;5.10;;;;;;;-41.45;71.31;90378.41;4240320;28;20238;-69
2023/03/14 00:34:44;;;;;;;15.13;5.50;;;;;;;-41.46;71.21;90376.88;4252452;28;20306;-69
2023/03/14 00:37:10;;;;;;;17.60;6.00;;;;;;;-41.58;71.25;90361.38;4251391;28;20314;-68
2023/03/14 00:39:37;;;;;;;13.63;5.47;;;;;;;-41.63;71.27;90338.97;4247994;28;22981;-69
2023/03/14 00:42:03;;;;;;;13.83;5.63;;;;;;;-41.75;71.83;90350.25;4246953;28;20230;-68
2023/03/14 00:44:30;;;;;;;13.40;5.77;;;;;;;-41.86;71.61;90320.88;4242735;28;21920;-68
2023/03/14 00:46:56;;;;;;;14.47;5.90;;;;;;;-41.97;72.11;90302.84;4245685;28;20736;-70
2023/03/14 00:49:23;;;;;;;14.43;6.10;;;;;;;-41.91;71.85;90305.78;4247736;28;20305;-67
2023/03/14 00:51:51;;;;;;;13.70;6.03;;;;;;;-41.83;71.98;90306.06;4255518;28;20481;-66
2023/03/14 00:54:20;;;;;;;17.57;5.43;;;;;;;-41.76;72.06;90319.44;4245787;28;21560;-69
2023/03/14 00:56:47;;;;;;;16.60;6.10;;;;;;;-41.99;71.95;90304.63;4244791;28;20234;-68
2023/03/14 00:59:15;;;;;;;13.27;5.77;;;;;;;-42.23;72.35;90274.47;4249492;28;25336;-68
2023/03/14 01:01:42;;;;;;;12.83;5.77;;;;;;;-42.21;72.56;90278.34;4254218;28;21488;-69
2023/03/14 01:04:08;;;;;;;14.63;5.10;;;;;;;-42.28;72.36;90262.56;4244995;28;20404;-67
2023/03/14 01:06:35;;;;;;;13.90;5.47;;;;;;;-42.37;72.62;90271.22;4250833;28;20343;-68
2023/03/14 01:09:02;;;;;;;17.40;6.50;;;;;;;-42.46;73.01;90253.97;4255534;28;20249;-68
2023/03/14 01:11:31;;;;;;;14.80;6.43;;;;;;;-42.44;72.96;90255.44;4250741;28;20246;-71
2023/03/14 01:13:58;;;;;;;16.57;6.30;;;;;;;-42.54;73.08;90246.38;4245478;28;20402;-69
2023/03/14 01:16:26;;;;;;;12.33;5.60;;;;;;;-42.54;72.88;90239.84;4256509;28;21574;-68
2023/03/14 01:18:53;;;;;;;14.20;5.67;;;;;;;-42.67;73.30;90243.88;4253548;28;20872;-68
2023/03/14 01:21:25;;;;;;;15.23;6.10;;;;;;;-42.70;73.39;90224.63;4247039;28;20404;-67
2023/03/14 01:23:52;;;;;;;17.83;5.87;;;;;;;-42.78;73.29;90219.47;4236020;28;20233;-68
2023/03/14 01:26:22;;;;;;;17.27;5.70;;;;;;;-42.83;73.39;90222.16;4245806;28;22997;-69
2023/03/14 01:28:50;;;;;;;15.37;5.67;;;;;;;-42.74;73.03;90224.00;4244604;28;20353;-68
2023/03/14 01:31:17;;;;;;;12.40;5.50;;;;;;;-42.81;73.47;90227.72;4238953;28;20334;-67
2023/03/14 01:33:46;;;;;;;14.47;6.00;;;;;;;-43.00;73.61;90203.72;4248918;28;20289;-66
2023/03/14 01:36:13;;;;;;;14.00;5.63;;;;;;;-43.15;73.88;90166.53;4246737;28;20253;-67
2023/03/14 01:38:40;;;;;;;11.97;5.53;;;;;;;-43.32;73.89;90165.16;4250527;28;20331;-68
2023/03/14 01:41:08;;;;;;;13.60;5.60;;;;;;;-43.30;73.95;90160.97;4238536;28;20244;-68
2023/03/14 01:43:34;;;;;;;14.80;5.77;;;;;;;-43.38;74.24;90155.78;4247500;28;20605;-67
2023/03/14 01:46:04;;;;;;;16.23;6.33;;;;;;;-43.45;74.71;90159.44;4256544;28;20316;-68
2023/03/14 01:48:46;;;;;;;16.17;6.10;;;;;;;-43.64;74.77;90142.75;4255855;28;20230;-68
2023/03/14 01:51:17;;;;;;;15.67;6.40;;;;;;;-43.71;74.60;90129.44;4249414;28;20361;-68
2023/03/14 01:53:44;;;;;;;15.23;5.20;;;;;;;-43.78;74.85;90129.00;4245450;28;20231;-68
2023/03/14 01:56:13;;;;;;;12.67;5.77;;;;;;;-43.78;75.44;90157.34;4251336;28;20222;-68
2023/03/14 01:58:41;;;;;;;18.87;5.90;;;;;;;-43.73;75.17;90151.34;4243147;28;21000;-68
2023/03/14 02:01:08;;;;;;;14.60;5.83;;;;;;;-43.80;74.97;90130.72;4232976;28;20367;-68
2023/03/14 02:03:42;;;;;;;13.60;5.80;;;;;;;-43.78;74.80;90121.72;4257140;28;22205;-68
2023/03/14 02:06:11;;;;;;;12.57;5.70;;;;;;;-43.87;74.70;90114.97;4242176;28;20532;-70
2023/03/14 02:08:38;;;;;;;13.33;5.33;;;;;;;-43.83;74.76;90116.34;4248813;28;20420;-68
2023/03/14 02:11:07;;;;;;;14.00;5.77;;;;;;;-43.98;74.71;90103.44;4251136;28;20697;-68
2023/03/14 02:13:33;;;;;;;18.03;6.10;;;;;;;-43.90;74.57;90100.59;4240563;28;20605;-69
2023/03/14 02:16:00;;;;;;;13.67;5.23;;;;;;;-43.98;75.01;90103.44;4248496;28;20239;-69
2023/03/14 02:18:27;;;;;;;15.23;5.93;;;;;;;-44.10;75.11;90087.97;4252192;28;20233;-68
2023/03/14 02:21:04;;;;;;;13.47;5.67;;;;;;;-44.11;75.19;90079.16;4252836;28;20397;-68
2023/03/14 02:23:58;;;;;;;15.20;5.63;;;;;;;-44.12;75.72;90093.78;4261576;28;20357;-68
2023/03/14 02:26:34;;;;;;;14.40;5.83;;;;;;;-44.18;75.58;90077.94;4268866;28;20293;-69
2023/03/14 02:29:01;;;;;;;14.93;5.50;;;;;;;-44.24;75.52;90062.97;4257464;28;20237;-67
2023/03/14 02:31:27;;;;;;;15.07;5.57;;;;;;;-44.35;75.59;90049.00;4251050;28;21370;-68
2023/03/14 02:33:55;;;;;;;13.90;5.50;;;;;;;-44.37;75.92;90045.94;4254184;28;20237;-67
2023/03/14 02:36:22;;;;;;;13.70;5.47;;;;;;;-44.38;74.83;90027.38;4248857;28;20508;-69
2023/03/14 02:38:58;;;;;;;13.90;5.73;;;;;;;-44.60;75.28;89985.00;4253702;28;22040;-67
2023/03/14 02:41:24;;;;;;;13.03;5.43;;;;;;;-44.86;75.63;89956.69;4238794;28;20248;-68
2023/03/14 02:43:51;;;;;;;14.10;5.80;;;;;;;-44.82;75.74;89955.63;4254122;28;20239;-68
2023/03/14 02:46:19;;;;;;;15.30;6.57;;;;;;;-44.85;75.63;89955.81;4255744;28;20238;-67
2023/03/14 02:48:56;;;;;;;16.40;5.37;;;;;;;-44.91;75.75;89956.16;4242399;28;20249;-67
2023/03/14 02:51:23;;;;;;;14.17;6.10;;;;;;;-45.05;75.62;89932.75;4237100;28;20947;-67
2023/03/14 02:53:50;;;;;;;14.60;5.83;;;;;;;-45.12;75.22;89927.47;4247495;28;21225;-69
2023/03/14 02:56:16;;;;;;;11.97;5.33;;;;;;;-45.20;74.94;89907.75;4250496;28;21118;-68
2023/03/14 02:58:43;;;;;;;12.30;5.57;;;;;;;-45.18;74.74;89916.50;4250258;28;20318;-68
2023/03/14 03:01:09;;;;;;;13.77;5.33;;;;;;;-45.22;74.74;89904.66;4253373;28;22989;-67
2023/03/14 03:03:36;;;;;;;10.73;5.13;;;;;;;-45.20;74.46;89894.00;4252140;28;20242;-69
2023/03/14 03:06:02;;;;;;;12.10;5.30;;;;;;;-45.34;74.97;89893.25;4238471;28;20327;-67
2023/03/14 03:08:29;;;;;;;11.10;5.20;;;;;;;-45.23;75.15;89898.25;4250313;28;20338;-68
2023/03/14 03:10:57;;;;;;;16.70;5.57;;;;;;;-45.29;74.79;89893.75;4249072;28;20387;-69
2023/03/14 03:13:24;;;;;;;11.67;5.50;;;;;;;-45.36;74.52;89893.31;4246846;28;21243;-68
2023/03/14 03:15:51;;;;;;;10.47;5.13;;;;;;;-45.27;74.26;89918.66;4247741;28;20241;-66
2023/03/14 03:18:17;;;;;;;13.57;5.40;;;;;;;-45.40;74.88;89911.31;4254566;28;20229;-67
2023/03/14 03:20:44;;;;;;;12.33;4.67;;;;;;;-45.50;74.81;89886.84;4251272;28;20403;-69
2023/03/14 03:23:10;;;;;;;12.97;5.20;;;;;;;-45.46;75.12;89888.22;4249898;28;20239;-68
2023/03/14 03:25:37;;;;;;;16.00;5.03;;;;;;;-45.64;75.13;89865.09;4246104;28;20308;-68
2023/03/14 03:28:07;;;;;;;13.63;4.80;;;;;;;-45.52;74.77;89882.94;4236891;28;21478;-70
2023/03/14 03:30:38;;;;;;;10.67;4.90;;;;;;;-45.78;75.00;89861.00;4247610;28;20302;-68
2023/03/14 03:33:05;;;;;;;10.53;4.87;;;;;;;-45.86;74.37;89824.41;4260141;28;20230;-68
2023/03/14 03:35:31;;;;;;;10.93;4.53;;;;;;;-45.96;74.68;89831.44;4239772;28;20244;-70
2023/03/14 03:37:58;;;;;;;13.53;4.97;;;;;;;-46.05;75.18;89836.75;4233557;28;22114;-68
2023/03/14 03:40:24;;;;;;;11.90;5.03;;;;;;;-46.06;75.50;89815.84;4237964;28;21625;-69
2023/03/14 03:42:51;;;;;;;17.40;5.63;;;;;;;-46.01;75.15;89835.75;4255667;28;21926;-68
2023/03/14 03:45:17;;;;;;;11.20;4.70;;;;;;;-46.12;75.57;89830.72;4239569;28;23754;-67
2023/03/14 03:47:44;;;;;;;10.40;4.93;;;;;;;-46.05;75.28;89836.75;4250537;28;20312;-68
2023/03/14 03:50:10;;;;;;;13.63;5.57;;;;;;;-46.09;75.43;89823.28;4254821;28;20529;-68
2023/03/14 03:52:37;;;;;;;9.70;4.50;;;;;;;-46.12;75.26;89826.66;4252719;28;21230;-69
2023/03/14 03:55:04;;;;;;;13.30;4.97;;;;;;;-46.18;75.30;89804.44;4249554;28;23798;-68
2023/03/14 03:57:30;;;;;;;13.07;4.53;;;;;;;-46.23;75.14;89813.59;4256264;28;25947;-69
2023/03/14 03:59:57;;;;;;;11.90;5.23;;;;;;;-46.36;74.56;89794.97;4251661;28;23669;-67
2023/03/14 04:02:23;;;;;;;8.43;4.10;;;;;;;-46.19;74.16;89800.50;4252886;28;21152;-68
2023/03/14 04:04:50;;;;;;;11.27;4.23;;;;;;;-46.21;74.09;89802.97;4236636;28;21766;-68
2023/03/14 04:07:16;;;;;;;10.47;4.47;;;;;;;-46.22;74.66;89806.28;4250939;28;21639;-68
2023/03/14 04:09:43;;;;;;;12.70;4.90;;;;;;;-46.42;74.59;89796.94;4251769;28;21815;-68
2023/03/14 04:12:10;;;;;;;12.93;4.30;;;;;;;-46.39;74.32;89787.88;4243551;28;20234;-68
2023/03/14 04:14:37;;;;;;;11.83;4.30;;;;;;;-46.57;73.86;89757.50;4246809;28;21073;-68
2023/03/14 04:17:03;;;;;;;11.77;3.97;;;;;;;-46.45;73.79;89785.03;4261569;28;20519;-70
2023/03/14 04:19:30;;;;;;;9.07;4.57;;;;;;;-46.44;74.04;89779.34;4251362;28;20265;-67
2023/03/14 04:21:57;;;;;;;14.27;4.80;;;;;;;-46.48;74.08;89767.44;4250747;28;21284;-69
2023/03/14 04:24:23;;;;;;;11.30;3.97;;;;;;;-46.40;73.61;89774.25;4254120;28;20241;-69
2023/03/14 04:26:50;;;;;;;9.37;4.00;;;;;;;-46.48;73.41;89754.56;4248303;28;20229;-69
2023/03/14 04:29:16;;;;;;;10.20;4.10;;;;;;;-46.59;73.59;89754.38;4263420;28;22115;-68
2023/03/14 04:31:43;;;;;;;12.03;4.00;;;;;;;-46.70;73.80;89743.66;4266436;28;20674;-71
2023/03/14 04:34:09;;;;;;;10.00;3.70;;;;;;;-46.72;72.96;89739.81;4247572;28;21739;-68
2023/03/14 04:36:36;;;;;;;16.13;4.30;;;;;;;-46.57;72.59;89743.78;4254652;28;20237;-69
2023/03/14 04:39:05;;;;;;;10.20;4.03;;;;;;;-46.84;73.25;89717.09;4259280;28;20260;-70
2023/03/14 04:41:31;;;;;;;9.20;4.30;;;;;;;-46.72;73.04;89716.44;4258589;28;20233;-69
2023/03/14 04:43:58;;;;;;;10.03;4.33;;;;;;;-46.86;73.25;89694.69;4256069;28;20303;-70
2023/03/14 04:46:24;;;;;;;10.57;4.40;;;;;;;-46.88;73.04;89686.75;4259087;28;20252;-69
2023/03/14 04:48:51;;;;;;;9.97;3.77;;;;;;;-47.00;72.86;89663.28;4240894;28;20242;-70
2023/03/14 04:51:18;;;;;;;10.73;4.30;;;;;;;-46.97;73.15;89659.06;4257551;28;20325;-68
2023/03/14 04:53:44;;;;;;;8.23;3.40;;;;;;;-46.99;73.06;89640.72;4255343;28;20989;-69
2023/03/14 04:56:12;;;;;;;9.23;3.80;;;;;;;-46.94;72.93;89643.66;4260510;28;20226;-70
2023/03/14 04:58:39;;;;;;;11.33;3.73;;;;;;;-47.08;72.63;89619.53;4250593;28;21213;-70
2023/03/14 05:01:06;;;;;;;11.03;3.97;;;;;;;-47.03;72.82;89634.50;4257337;28;20288;-69
2023/03/14 05:03:35;;;;;;;10.27;3.80;;;;;;;-47.03;73.04;89627.25;4257518;28;21737;-68
2023/03/14 05:06:02;;;;;;;9.80;4.20;;;;;;;-47.07;72.23;89614.56;4246012;28;21593;-68
2023/03/14 05:08:29;;;;;;;15.27;4.00;;;;;;;-47.15;72.44;89607.00;4232237;28;21823;-68
2023/03/14 05:10:56;;;;;;;14.00;4.20;;;;;;;-47.16;72.80;89596.59;4251427;28;20322;-68
2023/03/14 05:13:23;;;;;;;8.23;3.33;;;;;;;-47.00;72.40;89600.53;4259338;28;20223;-68
2023/03/14 05:15:51;;;;;;;9.03;4.10;;;;;;;-47.16;72.28;89579.72;4279097;28;21799;-67
2023/03/14 05:18:18;;;;;;;13.20;4.57;;;;;;;-47.12;72.33;89578.66;4289622;28;20229;-68
2023/03/14 05:20:45;;;;;;;9.40;3.67;;;;;;;-47.10;71.72;89576.16;4281687;28;21034;-68
2023/03/14 05:23:12;;;;;;;8.93;3.80;;;;;;;-47.25;71.25;89553.69;4266887;28;21601;-67
2023/03/14 05:25:38;;;;;;;9.97;3.77;;;;;;;-47.09;71.61;89574.53;4281535;28;22217;-70
2023/03/14 05:28:05;;;;;;;8.43;3.70;;;;;;;-47.20;71.54;89560.66;4285363;28;20415;-68
2023/03/14 05:30:33;;;;;;;11.83;4.23;;;;;;;-47.07;71.30;89571.13;4271935;28;20229;-68
2023/03/14 05:33:00;;;;;;;8.50;3.90;;;;;;;-47.24;70.84;89523.09;4268515;28;20237;-70
2023/03/14 05:35:26;;;;;;;7.73;3.53;;;;;;;-47.12;71.01;89549.69;4278004;28;20677;-69
2023/03/14 05:37:53;;;;;;;10.20;3.70;;;;;;;-47.29;70.86;89499.22;4265626;28;21688;-69
2023/03/14 05:40:20;;;;;;;11.10;3.97;;;;;;;-47.28;71.32;89519.28;4268980;28;20301;-70
2023/03/14 05:42:46;;;;;;;7.90;3.33;;;;;;;-47.39;71.86;89515.06;4269608;28;20310;-69
2023/03/14 05:45:13;;;;;;;11.90;3.87;;;;;;;-47.20;71.04;89525.25;4267008;28;20303;-67
2023/03/14 05:47:40;;;;;;;12.43;3.80;;;;;;;-47.06;71.50;89547.78;4248341;28;20334;-67
2023/03/14 05:50:07;;;;;;;9.23;3.77;;;;;;;-47.15;71.37;89523.34;4239387;28;20244;-69
2023/03/14 05:52:34;;;;;;;12.57;4.20;;;;;;;-47.09;70.79;89514.19;4252688;28;20239;-69
2023/03/14 05:55:00;;;;;;;13.90;4.23;;;;;;;-47.00;70.37;89523.28;4258069;28;20234;-70
2023/03/14 05:57:27;;;;;;;10.63;3.80;;;;;;;-46.97;70.70;89503.78;4240912;28;20309;-66
2023/03/14 05:59:53;;;;;;;11.53;3.80;;;;;;;-46.96;69.68;89493.28;4249585;28;21792;-67
2023/03/14 06:02:20;;;;;;;12.03;4.13;;;;;;;-46.78;69.40;89494.66;4244403;28;20249;-67
2023/03/14 06:04:47;;;;;;;10.10;4.07;;;;;;;-46.67;68.77;89493.19;4238786;28;20314;-67
2023/03/14 06:07:13;;;;;;;11.17;4.53;;;;;;;-46.76;68.62;89473.59;4253407;28;20226;-67
2023/03/14 06:09:40;;;;;;;9.77;4.17;;;;;;;-46.56;68.71;89494.13;4245087;28;20231;-69
2023/03/14 06:12:07;;;;;;;11.57;3.80;;;;;;;-46.47;68.32;89492.81;4260004;28;20651;-65
2023/03/14 06:14:33;;;;;;;8.70;3.53;;;;;;;-46.48;67.74;89492.03;4263539;28;20527;-67
2023/03/14 06:17:00;;;;;;;11.63;3.90;;;;;;;-46.54;68.24;89477.91;4237560;28;21382;-69
2023/03/14 06:19:26;;;;;;;14.10;3.97;;;;;;;-46.66;67.77;89468.22;4241106;28;20378;-69
2023/03/14 06:21:53;;;;;;;9.73;3.53;;;;;;;-46.69;67.82;89457.84;4247409;28;20353;-68
2023/03/14 06:24:19;;;;;;;10.00;3.57;;;;;;;-46.86;67.98;89452.50;4259873;28;23101;-65
2023/03/14 06:26:46;;;;;;;9.67;3.63;;;;;;;-46.80;67.89;89444.91;4265408;28;21236;-68
2023/03/14 06:29:13;;;;;;;10.43;3.67;;;;;;;-46.81;67.53;89445.75;4253871;28;20229;-67
2023/03/14 06:31:41;;;;;;;9.93;3.30;;;;;;;-46.86;67.38;89431.53;4264872;28;21581;-67
2023/03/14 06:34:07;;;;;;;9.40;3.73;;;;;;;-46.81;67.38;89417.53;4276246;28;20246;-68
2023/03/14 06:36:34;;;;;;;11.47;3.80;;;;;;;-46.79;67.28;89401.34;4255631;28;20612;-65
2023/03/14 06:39:00;;;;;;;11.07;4.17;;;;;;;-46.82;67.22;89386.28;4256171;28;20241;-66
2023/03/14 06:41:27;;;;;;;16.37;4.17;;;;;;;-46.66;66.64;89412.66;4259020;28;20245;-68
2023/03/14 06:43:53;;;;;;;10.60;3.70;;;;;;;-46.54;65.62;89399.84;4288288;28;20444;-70
2023/03/14 06:46:22;;;;;;;12.47;3.97;;;;;;;-46.47;65.57;89396.94;4259026;28;22954;-68
2023/03/14 06:48:48;;;;;;;9.40;4.23;;;;;;;-46.30;64.45;89388.63;4258726;28;20407;-67
2023/03/14 06:51:15;;;;;;;10.53;4.13;;;;;;;-46.23;64.00;89374.53;4257862;28;20260;-66
2023/03/14 06:53:41;;;;;;;8.80;4.13;;;;;;;-46.03;63.32;89380.56;4250114;28;20623;-66
2023/03/14 06:56:08;;;;;;;11.27;3.70;;;;;;;-45.94;62.74;89384.78;4243628;28;21169;-65
2023/03/14 06:58:35;;;;;;;8.40;3.83;;;;;;;-45.95;62.34;89366.31;4231825;28;20235;-67
2023/03/14 07:01:02;;;;;;;8.17;3.57;;;;;;;-45.69;61.77;89392.88;4255296;28;20233;-68
2023/03/14 07:03:28;;;;;;;10.63;3.83;;;;;;;-45.32;61.41;89444.50;4266239;28;21271;-69
2023/03/14 07:05:55;;;;;;;10.50;3.63;;;;;;;-45.12;59.81;89466.63;4271761;28;20241;-67
2023/03/14 07:08:22;;;;;;;9.87;4.07;;;;;;;-45.22;59.77;89439.84;4252559;28;20334;-70
2023/03/14 07:10:48;;;;;;;12.77;4.07;;;;;;;-45.08;60.20;89446.97;4270310;28;21713;-66
2023/03/14 07:13:15;;;;;;;10.33;3.90;;;;;;;-44.96;59.53;89445.38;4253059;28;20238;-67
2023/03/14 07:15:42;;;;;;;13.27;4.10;;;;;;;-44.93;58.70;89425.06;4239935;28;20261;-69
2023/03/14 07:18:08;;;;;;;8.13;3.77;;;;;;;-44.77;57.67;89415.88;4293686;28;21269;-68
2023/03/14 07:20:35;;;;;;;16.00;4.10;;;;;;;-44.71;57.56;89400.91;4290054;28;20244;-67
2023/03/14 07:23:03;;;;;;;16.03;4.10;;;;;;;-44.50;56.26;89403.53;4254176;28;20387;-66
2023/03/14 07:25:29;;;;;;;14.80;4.33;;;;;;;-44.13;56.02;89426.03;4319306;28;20233;-70
2023/03/14 07:27:56;;;;;;;13.83;3.57;;;;;;;-44.08;55.56;89412.81;4305736;28;20245;-68
2023/03/14 07:30:23;;;;;;;13.90;4.40;;;;;;;-43.71;54.42;89418.28;4308046;28;21560;-66
2023/03/14 07:32:50;;;;;;;13.87;3.67;;;;;;;-42.94;51.87;89417.63;4297221;28;20230;-69
2023/03/14 07:35:18;;;;;;;10.43;4.07;;;;;;;-42.60;50.22;89414.25;4288297;28;22813;-67
2023/03/14 07:37:44;;;;;;;12.87;4.00;;;;;;;-41.01;45.38;89414.19;4276571;28;22032;-67
2023/03/14 07:40:14;;;;;;;11.97;3.93;;;;;;;-38.98;39.83;89432.34;4272502;28;21536;-69
2023/03/14 07:42:42;;;;;;;10.70;4.27;;;;;;;-39.63;39.35;89407.72;4262497;28;20307;-67
2023/03/14 07:45:10;;;;;;;10.17;3.73;;;;;;;-39.46;39.69;89418.50;4274426;28;20242;-69
2023/03/14 07:47:38;;;;;;;13.63;4.03;;;;;;;-40.04;40.69;89424.97;4260512;28;25420;-67
2023/03/14 07:50:05;;;;;;;11.63;3.73;;;;;;;-39.87;40.86;89426.00;4285279;28;21106;-68
2023/03/14 07:52:32;;;;;;;8.87;3.47;;;;;;;-39.14;38.93;89403.53;4261022;28;21849;-65
2023/03/14 07:54:59;;;;;;;8.23;3.60;;;;;;;-37.99;36.94;89414.63;4265145;28;20294;-69
2023/03/14 07:57:26;;;;;;;12.13;3.63;;;;;;;-37.25;35.17;89384.13;4324318;28;20240;-65
2023/03/14 07:59:53;;;;;;;10.97;4.07;;;;;;;-37.11;34.45;89413.06;4322439;28;20230;-70
2023/03/14 08:02:22;;;;;;;10.87;3.30;;;;;;;-38.38;36.86;89415.59;4276673;28;21496;-66
2023/03/14 08:04:49;;;;;;;8.20;3.47;;;;;;;-38.42;36.61;89393.97;4303202;28;20229;-66
2023/03/14 08:07:16;;;;;;;17.47;4.00;;;;;;;-38.28;35.79;89371.47;4317748;28;20295;-68
2023/03/14 08:09:43;;;;;;;11.57;3.87;;;;;;;-38.05;35.54;89340.78;4289334;28;20482;-70
2023/03/14 08:12:10;;;;;;;13.17;4.17;;;;;;;-37.54;33.87;89296.09;4283215;28;20227;-66
2023/03/14 08:14:36;;;;;;;11.10;3.73;;;;;;;-38.75;35.30;89276.91;4262757;28;22398;-74
2023/03/14 08:17:04;;;;;;;10.73;3.70;;;;;;;-40.05;38.09;89285.91;4255679;28;20300;-67
2023/03/14 08:19:31;;;;;;;11.07;3.47;;;;;;;-40.87;39.46;89255.38;4276791;28;20421;-68
2023/03/14 08:21:59;;;;;;;20.73;3.97;;;;;;;-41.23;40.34;89230.72;4271296;28;21281;-67
2023/03/14 08:24:26;;;;;;;11.40;3.40;;;;;;;-41.52;40.69;89221.69;4288430;28;20380;-66
2023/03/14 08:26:52;;;;;;;11.67;3.73;;;;;;;-42.09;41.81;89185.78;4296111;28;20234;-69
2023/03/14 08:29:19;;;;;;;11.97;3.77;;;;;;;-42.39;42.32;89178.38;4272766;28;20245;-68
2023/03/14 08:31:46;;;;;;;8.90;3.43;;;;;;;-42.59;43.23;89187.22;4266304;28;20239;-65
2023/03/14 08:34:12;;;;;;;13.57;3.40;;;;;;;-42.27;42.98;89183.13;4260509;28;22044;-66
2023/03/14 08:36:39;;;;;;;8.03;3.50;;;;;;;-42.41;43.11;89199.63;4278074;28;20239;-67
2023/03/14 08:39:07;;;;;;;11.67;4.00;;;;;;;-43.17;44.68;89186.88;4270484;28;21027;-69
2023/03/14 08:41:39;;;;;;;12.70;3.50;;;;;;;-43.03;44.68;89183.38;4274891;28;20235;-66
2023/03/14 08:44:09;;;;;;;11.97;3.50;;;;;;;-42.90;44.54;89188.88;4248994;28;20244;-69
2023/03/14 08:46:37;;;;;;;9.73;3.40;;;;;;;-42.89;44.83;89180.66;4295921;28;20233;-65
2023/03/14 08:49:06;;;;;;;10.53;3.40;;;;;;;-42.47;44.43;89189.59;4271035;28;20238;-67
2023/03/14 08:51:33;;;;;;;9.87;3.00;;;;;;;-42.13;42.63;89152.84;4288741;28;20237;-70
2023/03/14 08:54:00;;;;;;;10.37;3.50;;;;;;;-42.15;42.11;89126.97;4339782;28;20241;-69
2023/03/14 08:56:27;;;;;;;7.80;3.20;;;;;;;-42.68;43.13;89111.81;4363189;28;20272;-68
2023/03/14 08:58:53;;;;;;;8.97;3.03;;;;;;;-43.33;43.77;89063.44;4284850;28;20236;-70
2023/03/14 09:01:23;;;;;;;13.23;3.30;;;;;;;-43.14;43.55;89049.84;4317031;28;25682;-68
2023/03/14 09:03:51;;;;;;;6.83;2.90;;;;;;;-43.49;43.75;89032.28;4272123;28;20230;-68
2023/03/14 09:06:17;;;;;;;14.10;3.87;;;;;;;-43.47;44.24;89044.31;4286563;28;23661;-71
2023/03/14 09:08:45;;;;;;;6.13;3.13;;;;;;;-43.33;44.40;89031.09;4266878;28;21679;-68
2023/03/14 09:11:12;;;;;;;8.83;3.17;;;;;;;-43.27;44.00;88994.97;4294207;28;22291;-70
2023/03/14 09:13:40;;;;;;;7.63;3.30;;;;;;;-43.57;44.05;88973.09;4262230;28;20242;-65
2023/03/14 09:16:07;;;;;;;7.47;3.17;;;;;;;-43.69;43.85;88991.84;4299687;28;20250;-66
2023/03/14 09:18:34;;;;;;;8.77;3.20;;;;;;;-44.07;44.41;88953.56;4280207;28;20292;-68
2023/03/14 09:21:01;;;;;;;11.80;3.00;;;;;;;-44.35;44.93;88898.28;4256938;28;20230;-70
2023/03/14 09:23:28;;;;;;;9.93;2.63;;;;;;;-44.14;44.92;88907.19;4248801;28;25440;-67
2023/03/14 09:25:56;;;;;;;5.30;2.97;;;;;;;-44.49;43.86;88817.81;4260980;28;20299;-68
2023/03/14 09:28:23;;;;;;;16.47;3.00;;;;;;;-44.56;43.97;88796.50;4249709;28;20233;-68
2023/03/14 09:30:49;;;;;;;5.87;2.83;;;;;;;-44.44;43.40;88801.28;4244968;28;20245;-67
2023/03/14 09:33:16;;;;;;;7.93;3.10;;;;;;;-44.55;43.34;88785.91;4260115;28;20241;-65
2023/03/14 09:35:43;;;;;;;9.43;3.07;;;;;;;-45.09;43.99;88718.34;4264180;28;20301;-65
2023/03/14 09:38:09;;;;;;;7.87;2.63;;;;;;;-45.40;43.49;88699.72;4226895;28;20297;-65
2023/03/14 09:40:37;;;;;;;7.23;2.80;;;;;;;-45.87;43.93;88646.06;4244686;28;20234;-68
2023/03/14 09:43:04;;;;;;;6.53;2.60;;;;;;;-45.96;44.37;88622.63;4269398;28;21437;-71
2023/03/14 09:45:40;;;;;;;7.33;3.10;;;;;;;-45.82;44.48;88609.47;4263511;28;21215;-66
2023/03/14 09:48:15;;;;;;;9.33;3.27;;;;;;;-46.36;43.60;88509.69;4249086;28;20230;-69
2023/03/14 09:50:48;;;;;;;12.13;3.00;;;;;;;-46.40;43.10;88473.81;4239702;28;20679;-69
2023/03/14 09:53:37;;;;;;;7.93;3.17;;;;;;;-46.54;42.61;88436.25;4251359;28;20253;-67
2023/03/14 09:56:04;;;;;;;8.23;2.97;;;;;;;-47.13;43.62;88370.75;4241661;28;20673;-65
2023/03/14 09:58:31;;;;;;;9.77;2.87;;;;;;;-47.06;44.02;88394.41;4262222;28;23131;-70
2023/03/14 10:00:58;;;;;;;7.70;2.83;;;;;;;-47.15;43.49;88333.94;4283728;28;20249;-65
2023/03/14 10:03:25;;;;;;;8.83;2.80;;;;;;;-47.05;42.77;88319.47;4270405;28;20227;-77
2023/03/14 10:05:53;;;;;;;6.80;2.83;;;;;;;-46.87;42.27;88353.50;4255390;28;21732;-67
2023/03/14 10:08:19;;;;;;;9.57;2.73;;;;;;;-47.01;42.71;88320.00;4260292;28;20660;-69
2023/03/14 10:10:46;;;;;;;17.93;3.27;;;;;;;-47.49;42.37;88262.66;4246764;28;20234;-64
2023/03/14 10:13:25;;;;;;;7.60;3.30;;;;;;;-47.31;43.06;88315.94;4273522;28;20270;-70
2023/03/14 10:15:59;;;;;;;9.50;2.90;;;;;;;-47.68;43.94;88252.03;4278094;28;21890;-67
2023/03/14 10:18:30;;;;;;;12.17;2.60;;;;;;;-48.09;43.61;88198.16;4253178;28;20241;-67
2023/03/14 10:21:16;;;;;;;11.30;3.23;;;;;;;-49.66;43.96;88001.63;4264240;28;20237;-67
2023/03/14 10:23:43;;;;;;;12.60;4.10;;;;;;;-49.64;45.14;88011.88;4267011;28;20417;-68
2023/03/14 10:26:19;;;;;;;8.90;3.30;;;;;;;-49.48;44.45;87988.22;4253718;28;20249;-67
2023/03/14 10:28:52;;;;;;;8.90;3.23;;;;;;;-49.99;44.25;87898.41;4248854;28;21809;-71
2023/03/14 10:31:24;;;;;;;10.20;3.00;;;;;;;-50.51;44.15;87834.34;4263578;28;21223;-69
2023/03/14 10:34:02;;;;;;;11.90;3.00;;;;;;;-50.92;44.27;87768.69;4282738;28;25486;-67
2023/03/14 10:36:34;;;;;;;7.70;2.63;;;;;;;-50.74;44.20;87793.69;4261323;28;20654;-69
2023/03/14 10:39:29;;;;;;;12.03;2.83;;;;;;;-51.23;44.55;87713.44;4257681;28;22770;-68
2023/03/14 10:42:35;;;;;;;11.73;3.20;;;;;;;-50.83;44.41;87729.66;4297148;28;20481;-66
2023/03/14 10:45:07;;;;;;;6.27;3.17;;;;;;;-50.84;43.49;87690.53;4263764;28;20731;-66
2023/03/14 10:47:33;;;;;;;9.30;2.50;;;;;;;-51.58;42.52;87554.06;4285213;28;20242;-66
2023/03/14 10:50:27;;;;;;;12.67;2.83;;;;;;;-51.94;43.55;87500.91;4276993;28;20231;-68
2023/03/14 10:52:55;;;;;;;6.37;2.80;;;;;;;-52.51;42.50;87459.00;4250632;28;20230;-65
2023/03/14 10:55:39;;;;;;;8.57;3.10;;;;;;;-53.51;42.63;87320.72;4246665;28;20525;-67
2023/03/14 10:58:21;;;;;;;8.23;2.63;;;;;;;-54.84;43.22;87150.06;4251438;28;21834;-68
2023/03/14 11:01:10;;;;;;;10.77;3.10;;;;;;;-55.28;42.98;87077.13;4259355;28;20238;-67
2023/03/14 11:03:39;;;;;;;6.33;2.97;;;;;;;-56.57;43.04;86897.00;4242674;28;22796;-68
2023/03/14 11:06:17;;;;;;;11.93;3.40;;;;;;;-57.46;44.00;86798.19;4231046;28;20630;-68
2023/03/14 11:09:05;;;;;;;7.23;2.77;;;;;;;-58.66;44.11;86636.78;4257725;28;20230;-67
2023/03/14 11:11:32;;;;;;;7.07;3.07;;;;;;;-60.08;44.32;86438.66;4258019;28;20292;-69
2023/03/14 11:14:29;;;;;;;7.13;3.10;;;;;;;-60.85;44.11;86331.41;4251182;28;20290;-66
2023/03/14 11:17:15;;;;;;;6.77;2.70;;;;;;;-62.33;44.52;86119.25;4237168;28;21794;-65
2023/03/14 11:19:53;;;;;;;10.47;3.20;;;;;;;-70.69;44.16;84917.72;4265576;28;20234;-64
2023/03/14 11:22:44;;;;;;;10.93;3.20;;;;;;;-72.42;44.88;84689.91;4249163;28;20422;-69
2023/03/14 11:25:31;;;;;;;7.70;2.57;;;;;;;-72.79;44.95;84662.06;4247173;28;24043;-66